Terminal Aerodrome Forecast
Issued by NWS Tampa Bay Area, FL

Home | Current Version | Previous Version | Text Only | Print | Product List | Glossary Off
Versions: 1 2 3 4 5 6 7 8 9 10 11 12 13

214
FTUS42 KTBW 101724
TAFSRQ
TAF
KSRQ 101724Z 1018/1118 32010KT P6SM BKN045
     FM101900 31012G18KT P6SM FEW045
     FM110100 33007KT P6SM SKC
     FM110500 01004KT P6SM SKC
     FM110900 07004KT P6SM SKC=

USA.gov is the U.S. government's official web portal to all federal, state and local government web resources and services.